Time;durP1;ratioP1;P1;durP2;ratioP2;P2;SDS_P1;SDS_P2;PMS_P1;PMS_P2;Temp;Humidity;BMP_temperature;BMP_pressure;BME280_temperature;BME280_humidity;BME280_pressure;Samples;Min_cycle;Max_cycle;Signal;HPM_P1;HPM_P2
2023/10/06 00:00:42;;;;;;;;;;;;;;;;;;109231;1254;59398;-80
2023/10/06 00:03:28;;;;;;;;;;;;;;;;;;109181;1254;61845;-80
2023/10/06 00:05:56;;;;;;;;;;;;;;;;;;109239;1253;59755;-80
2023/10/06 00:08:32;;;;;;;;;;;;;;;;;;109178;1253;59072;-81
2023/10/06 00:11:10;;;;;;;;;;;;;;;;;;109210;1253;61637;-80
2023/10/06 00:13:37;;;;;;;;;;;;;;;;;;109268;1253;59563;-80
2023/10/06 00:16:07;;;;;;;;;;;;;;;;;;109300;1253;59197;-81
2023/10/06 00:18:36;;;;;;;;;;;;;;;;;;109287;1252;59000;-80
2023/10/06 00:21:14;;;;;;;;;;;;;;;;;;109292;1253;59394;-80
2023/10/06 00:23:43;;;;;;;;;;;;;;;;;;109267;1253;62011;-80
2023/10/06 00:26:16;;;;;;;;;;;;;;;;;;109253;1252;59801;-80
2023/10/06 00:28:44;;;;;;;;;;;;;;;;;;109225;1253;59390;-80
2023/10/06 00:31:12;;;;;;;;;;;;;;;;;;109275;1253;59033;-80
2023/10/06 00:33:41;;;;;;;;;;;;;;;;;;109297;1252;59687;-80
2023/10/06 00:36:14;;;;;;;;;;;;;;;;;;109304;1253;61982;-80
2023/10/06 00:38:42;;;;;;;;;;;;;;;;;;109319;1253;59076;-80
2023/10/06 00:41:14;;;;;;;;;;;;;;;;;;109253;1252;60665;-80
2023/10/06 00:43:40;;;;;;;;;;;;;;;;;;109257;1253;59660;-80
2023/10/06 00:46:07;;;;;;;;;;;;;;;;;;109333;1254;59069;-80
2023/10/06 00:48:34;;;;;;;;;;;;;;;;;;109389;1251;58975;-80
2023/10/06 00:51:04;;;;;;;;;;;;;;;;;;109374;1251;59764;-80
2023/10/06 00:53:31;;;;;;;;;;;;;;;;;;109387;1254;59738;-80
2023/10/06 00:55:58;;;;;;;;;;;;;;;;;;109410;1251;58918;-80
2023/10/06 00:58:24;;;;;;;;;;;;;;;;;;109385;1251;59021;-80
2023/10/06 01:00:52;;;;;;;;;;;;;;;;;;109382;1252;59856;-80
2023/10/06 01:03:19;;;;;;;;;;;;;;;;;;109392;1251;59531;-80
2023/10/06 01:05:46;;;;;;;;;;;;;;;;;;109296;1253;59402;-80
2023/10/06 01:08:12;;;;;;;;;;;;;;;;;;109252;1252;58958;-80
2023/10/06 01:10:40;;;;;;;;;;;;;;;;;;109224;1253;59525;-80
2023/10/06 01:13:14;;;;;;;;;;;;;;;;;;109147;1253;184081;-80
2023/10/06 01:15:49;;;;;;;;;;;;;;;;;;109333;1253;58974;-80
2023/10/06 01:18:20;;;;;;;;;;;;;;;;;;109246;1253;60441;-80
2023/10/06 01:20:48;;;;;;;;;;;;;;;;;;109205;1252;59046;-81
2023/10/06 01:23:21;;;;;;;;;;;;;;;;;;109323;1253;58909;-82
2023/10/06 01:25:50;;;;;;;;;;;;;;;;;;109290;1252;61232;-81
2023/10/06 01:28:18;;;;;;;;;;;;;;;;;;109267;1253;58969;-81
2023/10/06 01:30:44;;;;;;;;;;;;;;;;;;109298;1253;59522;-80
2023/10/06 01:33:11;;;;;;;;;;;;;;;;;;109210;1253;59102;-81
2023/10/06 01:35:42;;;;;;;;;;;;;;;;;;109300;1254;59565;-81
2023/10/06 01:38:14;;;;;;;;;;;;;;;;;;109270;1253;62011;-80
2023/10/06 01:40:44;;;;;;;;;;;;;;;;;;109261;1252;59117;-80
2023/10/06 01:43:12;;;;;;;;;;;;;;;;;;109259;1253;59750;-80
2023/10/06 01:45:43;;;;;;;;;;;;;;;;;;109279;1253;59043;-80
2023/10/06 01:48:22;;;;;;;;;;;;;;;;;;109440;1254;58933;-80
2023/10/06 01:50:54;;;;;;;;;;;;;;;;;;109417;1253;62745;-81
2023/10/06 01:53:20;;;;;;;;;;;;;;;;;;109436;1255;59032;-80
2023/10/06 01:55:49;;;;;;;;;;;;;;;;;;109361;1255;59603;-80
2023/10/06 01:58:15;;;;;;;;;;;;;;;;;;109380;1251;59053;-80
2023/10/06 02:00:44;;;;;;;;;;;;;;;;;;109444;1251;59090;-80
2023/10/06 02:03:11;;;;;;;;;;;;;;;;;;109311;1251;62480;-80
2023/10/06 02:05:38;;;;;;;;;;;;;;;;;;109280;1252;59006;-80
2023/10/06 02:08:05;;;;;;;;;;;;;;;;;;109255;1253;59638;-80
2023/10/06 02:10:32;;;;;;;;;;;;;;;;;;109288;1252;59695;-80
2023/10/06 02:12:58;;;;;;;;;;;;;;;;;;109244;1252;58956;-80
2023/10/06 02:15:25;;;;;;;;;;;;;;;;;;109308;1253;59583;-80
2023/10/06 02:17:51;;;;;;;;;;;;;;;;;;109274;1253;59609;-80
2023/10/06 02:22:50;;;;;;;;;;;;;;;;;;109248;1253;59011;-80
2023/10/06 02:25:16;;;;;;;;;;;;;;;;;;109271;1253;59272;-81
2023/10/06 02:27:47;;;;;;;;;;;;;;;;;;109229;1258;59588;-80
2023/10/06 02:30:15;;;;;;;;;;;;;;;;;;109269;1252;59037;-80
2023/10/06 02:32:43;;;;;;;;;;;;;;;;;;109266;1253;59062;-80
2023/10/06 02:35:10;;;;;;;;;;;;;;;;;;109262;1253;59422;-80
2023/10/06 02:37:36;;;;;;;;;;;;;;;;;;109337;1252;59031;-80
2023/10/06 02:40:10;;;;;;;;;;;;;;;;;;109248;1253;59158;-80
2023/10/06 02:42:43;;;;;;;;;;;;;;;;;;109277;1252;59694;-80
2023/10/06 02:45:09;;;;;;;;;;;;;;;;;;109213;1253;59193;-81
2023/10/06 02:47:36;;;;;;;;;;;;;;;;;;109356;1254;59421;-80
2023/10/06 02:50:07;;;;;;;;;;;;;;;;;;109357;1251;59037;-80
2023/10/06 02:52:38;;;;;;;;;;;;;;;;;;109419;1253;62790;-80
2023/10/06 02:57:38;;;;;;;;;;;;;;;;;;109392;1254;59053;-80
2023/10/06 03:02:56;;;;;;;;;;;;;;;;;;109404;1251;59268;-80
2023/10/06 03:05:32;;;;;;;;;;;;;;;;;;109281;1257;62934;-80
2023/10/06 03:08:00;;;;;;;;;;;;;;;;;;109258;1253;59036;-80
2023/10/06 03:10:27;;;;;;;;;;;;;;;;;;109237;1253;59725;-80
2023/10/06 03:12:57;;;;;;;;;;;;;;;;;;109219;1253;59060;-80
2023/10/06 03:15:35;;;;;;;;;;;;;;;;;;109267;1253;59048;-80
2023/10/06 03:18:02;;;;;;;;;;;;;;;;;;109281;1253;61970;-80
2023/10/06 03:20:40;;;;;;;;;;;;;;;;;;109270;1252;59086;-80
2023/10/06 03:23:23;;;;;;;;;;;;;;;;;;109254;1253;59200;-81
2023/10/06 03:25:53;;;;;;;;;;;;;;;;;;109254;1252;59020;-80
2023/10/06 03:28:19;;;;;;;;;;;;;;;;;;109277;1252;59024;-80
2023/10/06 03:30:49;;;;;;;;;;;;;;;;;;109329;1252;61875;-80
2023/10/06 03:33:18;;;;;;;;;;;;;;;;;;109281;1256;59331;-80
2023/10/06 03:35:48;;;;;;;;;;;;;;;;;;109241;1253;59060;-81
2023/10/06 03:43:36;;;;;;;;;;;;;;;;;;109255;1252;63212;-80
2023/10/06 03:46:03;;;;;;;;;;;;;;;;;;109296;1253;59516;-80
2023/10/06 03:48:29;;;;;;;;;;;;;;;;;;109380;1251;59898;-80
2023/10/06 03:50:56;;;;;;;;;;;;;;;;;;109435;1251;59263;-81
2023/10/06 03:53:28;;;;;;;;;;;;;;;;;;109404;1251;59819;-81
2023/10/06 03:55:56;;;;;;;;;;;;;;;;;;109391;1253;62015;-80
2023/10/06 03:58:27;;;;;;;;;;;;;;;;;;109323;1251;59666;-80
2023/10/06 04:00:53;;;;;;;;;;;;;;;;;;109357;1251;59890;-80
2023/10/06 04:03:20;;;;;;;;;;;;;;;;;;109361;1251;58983;-81
2023/10/06 04:05:48;;;;;;;;;;;;;;;;;;109358;1253;59092;-80
2023/10/06 04:08:16;;;;;;;;;;;;;;;;;;109255;1253;61801;-80
2023/10/06 04:10:42;;;;;;;;;;;;;;;;;;109279;1253;59079;-80
2023/10/06 04:13:09;;;;;;;;;;;;;;;;;;109255;1254;59599;-80
2023/10/06 04:15:39;;;;;;;;;;;;;;;;;;109236;1256;59576;-80
2023/10/06 04:18:09;;;;;;;;;;;;;;;;;;109248;1254;59210;-80
2023/10/06 04:20:36;;;;;;;;;;;;;;;;;;109258;1253;61581;-80
2023/10/06 04:23:02;;;;;;;;;;;;;;;;;;109228;1256;59079;-80
2023/10/06 04:25:29;;;;;;;;;;;;;;;;;;109236;1259;59822;-80
2023/10/06 04:27:56;;;;;;;;;;;;;;;;;;109226;1253;58925;-80
2023/10/06 04:30:25;;;;;;;;;;;;;;;;;;109254;1253;59667;-80
2023/10/06 04:32:53;;;;;;;;;;;;;;;;;;109284;1252;62854;-80
2023/10/06 04:35:21;;;;;;;;;;;;;;;;;;109286;1253;59374;-80
2023/10/06 04:37:48;;;;;;;;;;;;;;;;;;109250;1252;60667;-80
2023/10/06 04:40:18;;;;;;;;;;;;;;;;;;109229;1253;59139;-80
2023/10/06 04:42:45;;;;;;;;;;;;;;;;;;109293;1252;59099;-80
2023/10/06 04:45:15;;;;;;;;;;;;;;;;;;109216;1253;60746;-80
2023/10/06 04:47:41;;;;;;;;;;;;;;;;;;109287;1253;59050;-80
2023/10/06 04:50:09;;;;;;;;;;;;;;;;;;109199;1256;59094;-80
2023/10/06 04:52:36;;;;;;;;;;;;;;;;;;109259;1252;59081;-80
2023/10/06 04:55:03;;;;;;;;;;;;;;;;;;109263;1253;59071;-80
2023/10/06 04:57:30;;;;;;;;;;;;;;;;;;109184;1256;62918;-81
2023/10/06 04:59:56;;;;;;;;;;;;;;;;;;109211;1253;59419;-80
2023/10/06 05:02:24;;;;;;;;;;;;;;;;;;109208;1251;59184;-80
2023/10/06 05:04:51;;;;;;;;;;;;;;;;;;109311;1251;59603;-80
2023/10/06 05:07:17;;;;;;;;;;;;;;;;;;109241;1253;59162;-80
2023/10/06 05:09:44;;;;;;;;;;;;;;;;;;109215;1252;61649;-80
2023/10/06 05:12:11;;;;;;;;;;;;;;;;;;109248;1253;59058;-80
2023/10/06 05:14:39;;;;;;;;;;;;;;;;;;109200;1252;59118;-80
2023/10/06 05:17:05;;;;;;;;;;;;;;;;;;109261;1252;59684;-80
2023/10/06 05:19:34;;;;;;;;;;;;;;;;;;109221;1253;59163;-80
2023/10/06 05:22:03;;;;;;;;;;;;;;;;;;109233;1252;62978;-80
2023/10/06 05:24:32;;;;;;;;;;;;;;;;;;109323;1251;59619;-80
2023/10/06 05:26:58;;;;;;;;;;;;;;;;;;109287;1254;59300;-80
2023/10/06 05:29:25;;;;;;;;;;;;;;;;;;109191;1253;59229;-80
2023/10/06 05:31:52;;;;;;;;;;;;;;;;;;109175;1253;59013;-80
2023/10/06 05:34:18;;;;;;;;;;;;;;;;;;109223;1253;62726;-80
2023/10/06 05:36:44;;;;;;;;;;;;;;;;;;109244;1254;59968;-80
2023/10/06 05:39:12;;;;;;;;;;;;;;;;;;109239;1253;59022;-80
2023/10/06 05:41:44;;;;;;;;;;;;;;;;;;109229;1254;59245;-80
2023/10/06 05:44:12;;;;;;;;;;;;;;;;;;109265;1252;58977;-80
2023/10/06 05:46:38;;;;;;;;;;;;;;;;;;109267;1253;61656;-80
2023/10/06 05:49:08;;;;;;;;;;;;;;;;;;109236;1254;59232;-80
2023/10/06 05:51:38;;;;;;;;;;;;;;;;;;109218;1254;60853;-80
2023/10/06 05:54:09;;;;;;;;;;;;;;;;;;109225;1253;59441;-81
2023/10/06 05:56:37;;;;;;;;;;;;;;;;;;109263;1252;58863;-80
2023/10/06 05:59:05;;;;;;;;;;;;;;;;;;109191;1253;61948;-80
2023/10/06 06:01:31;;;;;;;;;;;;;;;;;;109163;1254;59749;-81
2023/10/06 06:03:58;;;;;;;;;;;;;;;;;;109170;1254;59175;-80
2023/10/06 06:06:24;;;;;;;;;;;;;;;;;;109192;1253;59700;-80
2023/10/06 06:08:51;;;;;;;;;;;;;;;;;;109191;1254;59092;-80
2023/10/06 06:11:18;;;;;;;;;;;;;;;;;;109174;1254;60559;-80
2023/10/06 06:13:44;;;;;;;;;;;;;;;;;;109192;1254;59651;-80
2023/10/06 06:16:10;;;;;;;;;;;;;;;;;;109236;1251;59609;-80
2023/10/06 06:18:42;;;;;;;;;;;;;;;;;;109183;1253;59030;-80
2023/10/06 06:21:08;;;;;;;;;;;;;;;;;;109185;1254;59146;-80
2023/10/06 06:23:35;;;;;;;;;;;;;;;;;;109186;1254;59523;-80
2023/10/06 06:26:02;;;;;;;;;;;;;;;;;;109161;1255;59553;-80
2023/10/06 06:28:28;;;;;;;;;;;;;;;;;;109175;1251;59747;-80
2023/10/06 06:30:54;;;;;;;;;;;;;;;;;;109184;1252;59133;-80
2023/10/06 06:33:25;;;;;;;;;;;;;;;;;;109157;1252;59679;-80
2023/10/06 06:35:52;;;;;;;;;;;;;;;;;;109137;1254;62979;-80
2023/10/06 06:38:18;;;;;;;;;;;;;;;;;;109126;1254;59923;-80
2023/10/06 06:40:45;;;;;;;;;;;;;;;;;;109127;1253;59086;-80
2023/10/06 06:43:12;;;;;;;;;;;;;;;;;;109240;1253;59713;-81
2023/10/06 06:45:41;;;;;;;;;;;;;;;;;;109165;1251;59740;-80
2023/10/06 06:48:12;;;;;;;;;;;;;;;;;;109105;1254;62658;-80
2023/10/06 06:50:39;;;;;;;;;;;;;;;;;;109140;1253;59151;-80
2023/10/06 06:53:06;;;;;;;;;;;;;;;;;;109143;1253;59430;-80
2023/10/06 06:55:32;;;;;;;;;;;;;;;;;;109142;1253;59174;-81
2023/10/06 06:58:05;;;;;;;;;;;;;;;;;;109171;1254;59682;-80
2023/10/06 07:00:31;;;;;;;;;;;;;;;;;;109147;1254;62113;-80
2023/10/06 07:02:58;;;;;;;;;;;;;;;;;;109202;1254;59583;-80
2023/10/06 07:05:26;;;;;;;;;;;;;;;;;;109166;1253;59117;-80
2023/10/06 07:07:52;;;;;;;;;;;;;;;;;;109198;1253;59313;-81
2023/10/06 07:10:20;;;;;;;;;;;;;;;;;;109221;1253;59294;-80
2023/10/06 07:12:47;;;;;;;;;;;;;;;;;;109281;1254;62975;-80
2023/10/06 07:15:20;;;;;;;;;;;;;;;;;;109162;1252;58976;-81
2023/10/06 07:17:46;;;;;;;;;;;;;;;;;;109157;1253;59717;-81
2023/10/06 07:20:14;;;;;;;;;;;;;;;;;;109235;1251;59276;-81
2023/10/06 07:22:40;;;;;;;;;;;;;;;;;;109221;1252;59016;-81
2023/10/06 07:25:07;;;;;;;;;;;;;;;;;;109220;1254;59069;-81
2023/10/06 07:27:34;;;;;;;;;;;;;;;;;;109260;1253;59039;-81
2023/10/06 07:30:04;;;;;;;;;;;;;;;;;;109143;1254;60462;-81
2023/10/06 07:32:31;;;;;;;;;;;;;;;;;;109139;1253;59498;-81
2023/10/06 07:34:57;;;;;;;;;;;;;;;;;;109217;1252;59578;-81
2023/10/06 07:37:23;;;;;;;;;;;;;;;;;;109204;1252;59538;-81
2023/10/06 07:39:50;;;;;;;;;;;;;;;;;;109212;1253;59610;-81
2023/10/06 07:42:16;;;;;;;;;;;;;;;;;;109172;1253;59129;-81
2023/10/06 07:44:43;;;;;;;;;;;;;;;;;;109210;1253;59098;-81
2023/10/06 07:47:10;;;;;;;;;;;;;;;;;;109326;1251;59602;-81
2023/10/06 07:49:40;;;;;;;;;;;;;;;;;;109250;1253;62848;-81
2023/10/06 07:52:07;;;;;;;;;;;;;;;;;;109197;1252;59486;-81
2023/10/06 07:54:33;;;;;;;;;;;;;;;;;;109176;1253;59676;-81
2023/10/06 07:57:01;;;;;;;;;;;;;;;;;;109212;1252;59600;-81
2023/10/06 07:59:27;;;;;;;;;;;;;;;;;;109216;1254;59371;-81
2023/10/06 08:01:53;;;;;;;;;;;;;;;;;;109172;1252;59162;-81
2023/10/06 08:04:21;;;;;;;;;;;;;;;;;;109202;1251;59702;-81
2023/10/06 08:06:48;;;;;;;;;;;;;;;;;;109222;1253;59975;-81
2023/10/06 08:09:17;;;;;;;;;;;;;;;;;;109161;1253;59762;-81
2023/10/06 08:11:43;;;;;;;;;;;;;;;;;;109253;1253;59359;-80
2023/10/06 08:14:13;;;;;;;;;;;;;;;;;;109234;1252;61769;-81
2023/10/06 08:16:40;;;;;;;;;;;;;;;;;;109234;1253;59026;-81
2023/10/06 08:19:06;;;;;;;;;;;;;;;;;;109182;1252;59754;-81
2023/10/06 08:21:33;;;;;;;;;;;;;;;;;;109289;1251;59647;-80
2023/10/06 08:24:00;;;;;;;;;;;;;;;;;;109248;1251;59778;-80
2023/10/06 08:26:27;;;;;;;;;;;;;;;;;;109161;1252;60420;-80
2023/10/06 08:28:54;;;;;;;;;;;;;;;;;;109185;1252;59519;-81
2023/10/06 08:31:20;;;;;;;;;;;;;;;;;;109186;1253;59721;-81
2023/10/06 08:33:47;;;;;;;;;;;;;;;;;;109207;1253;59974;-81
2023/10/06 08:36:13;;;;;;;;;;;;;;;;;;109293;1251;59122;-81
2023/10/06 08:38:40;;;;;;;;;;;;;;;;;;109203;1251;59011;-81
2023/10/06 08:41:07;;;;;;;;;;;;;;;;;;109179;1252;59676;-81
2023/10/06 08:43:34;;;;;;;;;;;;;;;;;;109156;1251;59664;-81
2023/10/06 08:46:01;;;;;;;;;;;;;;;;;;109248;1252;60234;-81
2023/10/06 08:48:28;;;;;;;;;;;;;;;;;;109334;1251;59337;-81
2023/10/06 08:50:55;;;;;;;;;;;;;;;;;;109246;1253;62964;-81
2023/10/06 08:53:23;;;;;;;;;;;;;;;;;;109183;1253;59612;-81
2023/10/06 08:55:49;;;;;;;;;;;;;;;;;;109193;1252;59393;-81
2023/10/06 08:58:17;;;;;;;;;;;;;;;;;;109172;1252;58910;-81
2023/10/06 09:00:44;;;;;;;;;;;;;;;;;;109182;1252;59137;-81
2023/10/06 09:03:11;;;;;;;;;;;;;;;;;;109228;1252;59162;-81
2023/10/06 09:05:37;;;;;;;;;;;;;;;;;;109248;1251;59701;-81
2023/10/06 09:08:09;;;;;;;;;;;;;;;;;;109206;1252;59112;-81
2023/10/06 09:10:36;;;;;;;;;;;;;;;;;;109211;1251;59512;-82
2023/10/06 09:13:04;;;;;;;;;;;;;;;;;;109263;1253;59633;-81
2023/10/06 09:15:30;;;;;;;;;;;;;;;;;;109198;1253;60816;-81
2023/10/06 09:17:56;;;;;;;;;;;;;;;;;;109223;1252;59556;-82
2023/10/06 09:20:23;;;;;;;;;;;;;;;;;;109187;1254;60035;-81
2023/10/06 09:22:49;;;;;;;;;;;;;;;;;;109164;1255;59023;-81
2023/10/06 09:25:18;;;;;;;;;;;;;;;;;;109225;1254;59595;-81
2023/10/06 09:27:44;;;;;;;;;;;;;;;;;;109194;1254;61870;-81
2023/10/06 09:30:11;;;;;;;;;;;;;;;;;;109212;1253;59587;-81
2023/10/06 09:32:39;;;;;;;;;;;;;;;;;;109166;1252;60010;-82
2023/10/06 09:35:05;;;;;;;;;;;;;;;;;;109183;1254;59351;-81
2023/10/06 09:37:31;;;;;;;;;;;;;;;;;;109213;1252;59514;-81
2023/10/06 09:39:58;;;;;;;;;;;;;;;;;;109230;1252;59276;-81
2023/10/06 09:42:24;;;;;;;;;;;;;;;;;;109262;1251;59632;-81
2023/10/06 09:44:50;;;;;;;;;;;;;;;;;;109287;1252;59618;-81
2023/10/06 09:47:17;;;;;;;;;;;;;;;;;;109279;1253;59747;-81
2023/10/06 09:49:43;;;;;;;;;;;;;;;;;;109209;1252;59560;-81
2023/10/06 09:52:09;;;;;;;;;;;;;;;;;;109176;1252;59661;-81
2023/10/06 09:54:36;;;;;;;;;;;;;;;;;;109242;1252;59705;-81
2023/10/06 09:57:02;;;;;;;;;;;;;;;;;;109218;1252;59081;-81
2023/10/06 09:59:31;;;;;;;;;;;;;;;;;;109247;1252;59082;-81
2023/10/06 10:01:58;;;;;;;;;;;;;;;;;;109212;1253;59950;-81
2023/10/06 10:04:25;;;;;;;;;;;;;;;;;;109190;1253;59261;-82
2023/10/06 10:06:53;;;;;;;;;;;;;;;;;;109170;1253;59098;-81
2023/10/06 10:09:21;;;;;;;;;;;;;;;;;;109157;1252;59751;-81
2023/10/06 10:11:47;;;;;;;;;;;;;;;;;;109163;1252;59319;-81
2023/10/06 10:14:18;;;;;;;;;;;;;;;;;;109206;1252;59024;-81
2023/10/06 10:16:45;;;;;;;;;;;;;;;;;;109246;1253;60453;-81
2023/10/06 10:19:11;;;;;;;;;;;;;;;;;;109214;1253;59299;-81
2023/10/06 10:21:37;;;;;;;;;;;;;;;;;;109220;1252;59036;-82
2023/10/06 10:24:06;;;;;;;;;;;;;;;;;;109264;1252;59055;-81
2023/10/06 10:26:37;;;;;;;;;;;;;;;;;;109273;1252;59642;-81
2023/10/06 10:29:03;;;;;;;;;;;;;;;;;;109178;1253;61568;-81
2023/10/06 10:31:31;;;;;;;;;;;;;;;;;;109225;1252;59275;-81
2023/10/06 10:33:57;;;;;;;;;;;;;;;;;;109214;1252;60610;-81
2023/10/06 10:36:24;;;;;;;;;;;;;;;;;;109211;1253;59234;-81
2023/10/06 10:38:50;;;;;;;;;;;;;;;;;;109252;1252;59424;-81
2023/10/06 10:41:17;;;;;;;;;;;;;;;;;;109153;1253;59083;-81
2023/10/06 10:43:45;;;;;;;;;;;;;;;;;;109168;1254;59370;-81
2023/10/06 10:46:14;;;;;;;;;;;;;;;;;;109256;1252;60064;-81
2023/10/06 10:48:50;;;;;;;;;;;;;;;;;;109179;1253;59502;-81
2023/10/06 10:51:21;;;;;;;;;;;;;;;;;;109159;1253;59602;-81
2023/10/06 10:53:49;;;;;;;;;;;;;;;;;;109256;1252;62038;-81
2023/10/06 10:56:17;;;;;;;;;;;;;;;;;;109188;1252;59837;-81
2023/10/06 10:58:49;;;;;;;;;;;;;;;;;;109147;1253;59521;-81
2023/10/06 11:01:17;;;;;;;;;;;;;;;;;;109179;1253;59514;-80
2023/10/06 11:03:44;;;;;;;;;;;;;;;;;;109171;1252;59741;-81
2023/10/06 11:06:10;;;;;;;;;;;;;;;;;;109200;1257;59084;-83
2023/10/06 11:08:36;;;;;;;;;;;;;;;;;;109252;1252;59648;-83
2023/10/06 11:11:03;;;;;;;;;;;;;;;;;;109123;1253;59996;-81
2023/10/06 11:13:31;;;;;;;;;;;;;;;;;;109340;1256;59076;-81
2023/10/06 11:15:58;;;;;;;;;;;;;;;;;;109226;1252;59019;-81
2023/10/06 11:18:24;;;;;;;;;;;;;;;;;;109217;1254;59645;-81
2023/10/06 11:20:54;;;;;;;;;;;;;;;;;;109206;1252;59581;-81
2023/10/06 11:23:23;;;;;;;;;;;;;;;;;;109220;1251;59999;-81
2023/10/06 11:25:50;;;;;;;;;;;;;;;;;;109223;1252;60464;-81
2023/10/06 11:28:16;;;;;;;;;;;;;;;;;;109250;1252;59644;-81
2023/10/06 11:30:43;;;;;;;;;;;;;;;;;;109206;1253;60397;-81
2023/10/06 11:33:10;;;;;;;;;;;;;;;;;;109198;1252;59345;-81
2023/10/06 11:35:36;;;;;;;;;;;;;;;;;;109191;1252;59720;-82
2023/10/06 11:38:03;;;;;;;;;;;;;;;;;;109200;1252;59125;-81
2023/10/06 11:40:30;;;;;;;;;;;;;;;;;;109340;1253;58944;-81
2023/10/06 11:42:57;;;;;;;;;;;;;;;;;;109266;1252;60385;-81
2023/10/06 11:45:24;;;;;;;;;;;;;;;;;;109236;1251;59334;-81
2023/10/06 11:47:51;;;;;;;;;;;;;;;;;;109159;1252;59746;-81
2023/10/06 11:50:17;;;;;;;;;;;;;;;;;;109171;1253;59556;-81
2023/10/06 11:52:44;;;;;;;;;;;;;;;;;;109225;1256;59655;-81
2023/10/06 11:55:14;;;;;;;;;;;;;;;;;;109201;1252;62867;-82
2023/10/06 11:57:41;;;;;;;;;;;;;;;;;;109287;1254;59609;-81
2023/10/06 12:00:10;;;;;;;;;;;;;;;;;;109388;1253;58894;-81
2023/10/06 12:02:36;;;;;;;;;;;;;;;;;;109297;1252;59025;-81
2023/10/06 12:05:03;;;;;;;;;;;;;;;;;;109182;1253;59602;-81
2023/10/06 12:07:30;;;;;;;;;;;;;;;;;;109247;1252;59433;-81
2023/10/06 12:09:56;;;;;;;;;;;;;;;;;;109177;1252;59347;-81
2023/10/06 12:12:23;;;;;;;;;;;;;;;;;;109229;1252;60490;-81
2023/10/06 12:14:50;;;;;;;;;;;;;;;;;;109189;1252;59026;-81
2023/10/06 12:17:17;;;;;;;;;;;;;;;;;;109238;1252;59746;-81
2023/10/06 12:19:43;;;;;;;;;;;;;;;;;;109218;1252;61210;-81
2023/10/06 12:22:10;;;;;;;;;;;;;;;;;;109183;1253;59453;-81
2023/10/06 12:24:36;;;;;;;;;;;;;;;;;;109237;1254;58990;-81
2023/10/06 12:27:03;;;;;;;;;;;;;;;;;;109180;1252;59857;-81
2023/10/06 12:29:31;;;;;;;;;;;;;;;;;;109198;1252;59637;-81
2023/10/06 12:31:57;;;;;;;;;;;;;;;;;;109245;1252;62363;-81
2023/10/06 12:34:23;;;;;;;;;;;;;;;;;;109227;1252;59739;-81
2023/10/06 12:36:52;;;;;;;;;;;;;;;;;;109231;1252;59297;-84
2023/10/06 12:39:30;;;;;;;;;;;;;;;;;;109187;1252;59208;-82
2023/10/06 12:41:59;;;;;;;;;;;;;;;;;;109219;1252;59023;-83
2023/10/06 12:44:27;;;;;;;;;;;;;;;;;;109199;1252;60373;-85
2023/10/06 12:46:55;;;;;;;;;;;;;;;;;;109329;1251;59025;-84
2023/10/06 12:49:23;;;;;;;;;;;;;;;;;;109210;1252;59522;-82
2023/10/06 12:51:49;;;;;;;;;;;;;;;;;;109214;1252;59239;-84
2023/10/06 12:54:15;;;;;;;;;;;;;;;;;;109196;1252;59022;-82
2023/10/06 12:56:46;;;;;;;;;;;;;;;;;;109271;1252;59654;-83
2023/10/06 12:59:13;;;;;;;;;;;;;;;;;;109222;1252;59018;-85
2023/10/06 13:01:39;;;;;;;;;;;;;;;;;;109166;1253;59343;-82
2023/10/06 13:04:05;;;;;;;;;;;;;;;;;;109223;1252;59382;-84
2023/10/06 13:06:32;;;;;;;;;;;;;;;;;;109240;1252;59726;-85
2023/10/06 13:09:02;;;;;;;;;;;;;;;;;;109195;1252;59469;-85
2023/10/06 13:11:28;;;;;;;;;;;;;;;;;;109029;1254;178367;-84
2023/10/06 13:13:55;;;;;;;;;;;;;;;;;;109179;1254;58985;-84
2023/10/06 13:16:21;;;;;;;;;;;;;;;;;;109230;1252;59238;-83
2023/10/06 13:18:49;;;;;;;;;;;;;;;;;;109218;1252;59055;-80
2023/10/06 13:21:16;;;;;;;;;;;;;;;;;;109187;1252;61345;-83
2023/10/06 13:23:45;;;;;;;;;;;;;;;;;;109246;1252;59204;-80
2023/10/06 13:26:12;;;;;;;;;;;;;;;;;;109230;1252;60675;-80
2023/10/06 13:28:40;;;;;;;;;;;;;;;;;;109209;1252;59166;-84
2023/10/06 13:31:09;;;;;;;;;;;;;;;;;;109207;1252;59581;-80
2023/10/06 13:33:36;;;;;;;;;;;;;;;;;;109210;1252;62266;-80
2023/10/06 13:36:03;;;;;;;;;;;;;;;;;;109231;1252;60647;-80
2023/10/06 13:38:31;;;;;;;;;;;;;;;;;;109299;1251;59688;-80
2023/10/06 13:40:57;;;;;;;;;;;;;;;;;;109270;1252;59680;-80
2023/10/06 13:43:24;;;;;;;;;;;;;;;;;;109280;1252;59007;-83
2023/10/06 13:45:50;;;;;;;;;;;;;;;;;;109247;1252;59759;-80
2023/10/06 13:48:22;;;;;;;;;;;;;;;;;;109225;1254;59002;-79
2023/10/06 13:50:52;;;;;;;;;;;;;;;;;;109215;1253;60933;-83
2023/10/06 13:53:18;;;;;;;;;;;;;;;;;;109266;1251;58997;-83
2023/10/06 13:55:44;;;;;;;;;;;;;;;;;;109286;1253;59385;-80
2023/10/06 13:58:11;;;;;;;;;;;;;;;;;;109249;1251;59622;-80
2023/10/06 14:00:40;;;;;;;;;;;;;;;;;;109240;1253;60099;-83
2023/10/06 14:03:07;;;;;;;;;;;;;;;;;;109265;1252;59464;-83
2023/10/06 14:05:33;;;;;;;;;;;;;;;;;;109254;1251;59309;-80
2023/10/06 14:08:00;;;;;;;;;;;;;;;;;;109291;1252;58961;-83
2023/10/06 14:10:26;;;;;;;;;;;;;;;;;;109293;1252;60442;-80
2023/10/06 14:13:10;;;;;;;;;;;;;;;;;;109298;1251;59451;-83
2023/10/06 14:15:41;;;;;;;;;;;;;;;;;;109360;1253;60011;-81
2023/10/06 14:18:07;;;;;;;;;;;;;;;;;;109233;1252;59037;-81
2023/10/06 14:20:33;;;;;;;;;;;;;;;;;;109335;1252;59027;-81
2023/10/06 14:23:00;;;;;;;;;;;;;;;;;;109299;1252;59379;-81
2023/10/06 14:25:26;;;;;;;;;;;;;;;;;;109230;1252;59326;-81
2023/10/06 14:27:53;;;;;;;;;;;;;;;;;;109223;1252;59754;-81
2023/10/06 14:30:21;;;;;;;;;;;;;;;;;;109201;1252;59071;-81
2023/10/06 14:33:06;;;;;;;;;;;;;;;;;;109230;1252;59051;-81
2023/10/06 14:35:45;;;;;;;;;;;;;;;;;;109245;1253;62617;-81
2023/10/06 14:46:26;;;;;;;;;;;;;;;;;;109263;1252;59370;-81
2023/10/06 14:48:53;;;;;;;;;;;;;;;;;;109245;1254;59278;-81
2023/10/06 14:51:19;;;;;;;;;;;;;;;;;;109189;1254;59619;-81
2023/10/06 14:53:46;;;;;;;;;;;;;;;;;;109201;1255;59177;-81
2023/10/06 14:56:12;;;;;;;;;;;;;;;;;;109281;1253;59971;-81
2023/10/06 14:58:39;;;;;;;;;;;;;;;;;;109241;1253;58950;-81
2023/10/06 15:01:05;;;;;;;;;;;;;;;;;;109332;1252;59392;-82
2023/10/06 15:03:33;;;;;;;;;;;;;;;;;;109260;1252;59538;-81
2023/10/06 15:05:59;;;;;;;;;;;;;;;;;;109308;1251;60508;-80
2023/10/06 15:08:26;;;;;;;;;;;;;;;;;;109405;1251;58995;-81
2023/10/06 15:10:52;;;;;;;;;;;;;;;;;;109265;1253;59423;-81
2023/10/06 15:13:19;;;;;;;;;;;;;;;;;;109249;1253;59376;-81
2023/10/06 15:15:46;;;;;;;;;;;;;;;;;;109300;1253;59608;-80
2023/10/06 15:18:15;;;;;;;;;;;;;;;;;;109294;1253;59702;-81
2023/10/06 15:20:42;;;;;;;;;;;;;;;;;;109243;1254;59634;-81
2023/10/06 15:23:12;;;;;;;;;;;;;;;;;;109318;1253;59639;-81
2023/10/06 15:25:39;;;;;;;;;;;;;;;;;;109261;1253;62102;-81
2023/10/06 15:28:06;;;;;;;;;;;;;;;;;;109268;1254;59801;-81
2023/10/06 15:30:32;;;;;;;;;;;;;;;;;;109274;1252;59096;-81
2023/10/06 15:32:58;;;;;;;;;;;;;;;;;;109264;1253;59109;-81
2023/10/06 15:35:26;;;;;;;;;;;;;;;;;;109277;1252;59339;-81
2023/10/06 15:37:52;;;;;;;;;;;;;;;;;;109233;1253;61914;-81
2023/10/06 15:40:20;;;;;;;;;;;;;;;;;;109261;1254;59015;-80
2023/10/06 15:42:46;;;;;;;;;;;;;;;;;;109247;1254;59025;-80
2023/10/06 15:45:13;;;;;;;;;;;;;;;;;;109268;1255;59020;-81
2023/10/06 15:47:41;;;;;;;;;;;;;;;;;;109263;1252;59152;-80
2023/10/06 15:50:07;;;;;;;;;;;;;;;;;;109279;1253;62194;-81
2023/10/06 15:52:33;;;;;;;;;;;;;;;;;;109313;1253;59100;-80
2023/10/06 15:55:00;;;;;;;;;;;;;;;;;;109262;1254;59680;-81
2023/10/06 15:57:26;;;;;;;;;;;;;;;;;;109267;1253;59083;-80
2023/10/06 15:59:54;;;;;;;;;;;;;;;;;;109291;1252;58986;-80
2023/10/06 16:02:23;;;;;;;;;;;;;;;;;;109307;1253;61665;-80
2023/10/06 16:04:50;;;;;;;;;;;;;;;;;;109290;1252;59548;-81
2023/10/06 16:07:17;;;;;;;;;;;;;;;;;;109360;1251;61266;-80
2023/10/06 16:09:43;;;;;;;;;;;;;;;;;;109412;1251;59188;-81
2023/10/06 16:12:11;;;;;;;;;;;;;;;;;;109409;1251;58947;-80
2023/10/06 16:14:38;;;;;;;;;;;;;;;;;;109330;1251;60579;-80
2023/10/06 16:17:04;;;;;;;;;;;;;;;;;;109477;1251;59650;-80
2023/10/06 16:19:30;;;;;;;;;;;;;;;;;;109428;1253;59645;-80
2023/10/06 16:21:57;;;;;;;;;;;;;;;;;;109412;1251;59171;-80
2023/10/06 16:24:23;;;;;;;;;;;;;;;;;;109307;1253;58920;-80
2023/10/06 16:26:50;;;;;;;;;;;;;;;;;;109288;1253;59648;-80
2023/10/06 16:29:16;;;;;;;;;;;;;;;;;;109333;1252;59016;-80
2023/10/06 16:31:42;;;;;;;;;;;;;;;;;;109307;1253;59607;-80
2023/10/06 16:34:09;;;;;;;;;;;;;;;;;;109338;1252;59084;-80
2023/10/06 16:36:37;;;;;;;;;;;;;;;;;;109329;1253;59431;-80
2023/10/06 16:39:15;;;;;;;;;;;;;;;;;;109281;1253;63010;-80
2023/10/06 16:41:42;;;;;;;;;;;;;;;;;;109271;1253;59740;-80
2023/10/06 16:44:09;;;;;;;;;;;;;;;;;;109326;1251;59664;-80
2023/10/06 16:46:35;;;;;;;;;;;;;;;;;;109136;1254;59148;-80
2023/10/06 16:49:02;;;;;;;;;;;;;;;;;;109247;1253;59627;-80
2023/10/06 16:51:30;;;;;;;;;;;;;;;;;;109305;1254;59286;-80
2023/10/06 16:53:57;;;;;;;;;;;;;;;;;;109285;1255;59709;-80